Time;durP1;ratioP1;P1;durP2;ratioP2;P2;SDS_P1;SDS_P2;PMS_P1;PMS_P2;Temp;Humidity;BMP_temperature;BMP_pressure;BME280_temperature;BME280_humidity;BME280_pressure;Samples;Min_cycle;Max_cycle;Signal;HPM_P1;HPM_P2
2022/10/01 00:00:25;;;;;;;9.98;7.65;;;11.50;99.90;;;;;;5032504;28;20046;-64
2022/10/01 00:02:54;;;;;;;10.10;7.55;;;11.60;99.90;;;;;;5024613;28;20034;-64
2022/10/01 00:05:21;;;;;;;12.27;8.07;;;11.70;99.90;;;;;;5013417;28;20049;-64
2022/10/01 00:07:46;;;;;;;11.55;7.90;;;11.50;99.90;;;;;;5021858;28;20037;-64
2022/10/01 00:10:14;;;;;;;10.43;7.70;;;11.40;99.90;;;;;;5033704;28;20111;-64
2022/10/01 00:12:47;;;;;;;10.45;8.18;;;11.60;99.90;;;;;;5021284;28;20408;-64
2022/10/01 00:15:14;;;;;;;10.07;7.95;;;11.50;99.90;;;;;;5020460;28;20492;-64
2022/10/01 00:17:41;;;;;;;11.07;8.63;;;11.70;99.90;;;;;;5025082;28;20479;-64
2022/10/01 00:20:07;;;;;;;13.10;7.93;;;11.60;99.90;;;;;;5037366;28;20117;-64
2022/10/01 00:22:35;;;;;;;10.15;8.48;;;11.40;99.90;;;;;;5017208;28;20037;-64
2022/10/01 00:25:01;;;;;;;9.65;8.05;;;11.50;99.90;;;;;;5028228;28;20483;-64
2022/10/01 00:27:27;;;;;;;11.68;9.10;;;11.50;99.90;;;;;;5031435;28;20479;-64
2022/10/01 00:29:53;;;;;;;13.70;8.93;;;11.50;99.90;;;;;;5013165;28;20049;-64
2022/10/01 00:32:20;;;;;;;10.80;9.35;;;11.50;99.90;;;;;;5013354;28;20045;-64
2022/10/01 00:34:46;;;;;;;13.77;9.57;;;11.70;99.90;;;;;;5031015;28;20519;-64
2022/10/01 00:37:12;;;;;;;14.30;9.20;;;11.40;99.90;;;;;;5022871;28;20072;-64
2022/10/01 00:39:37;;;;;;;12.88;10.32;;;11.50;99.90;;;;;;5031573;28;20124;-64
2022/10/01 00:42:16;;;;;;;13.80;9.90;;;11.40;99.90;;;;;;5014138;28;20034;-63
2022/10/01 00:44:42;;;;;;;12.25;9.68;;;11.50;99.90;;;;;;5021422;28;20041;-64
2022/10/01 00:47:42;;;;;;;14.73;10.38;;;11.50;99.90;;;;;;5027084;28;20381;-64
2022/10/01 00:50:27;;;;;;;11.88;9.63;;;11.30;99.90;;;;;;5013653;28;20065;-64
2022/10/01 00:52:58;;;;;;;13.40;9.93;;;11.30;99.90;;;;;;5012807;28;20042;-64
2022/10/01 00:55:30;;;;;;;13.88;10.27;;;;;;;;;;5013929;28;20042;-63
2022/10/01 00:57:56;;;;;;;12.43;10.30;;;11.30;99.90;;;;;;5012466;28;20041;-63
2022/10/01 01:00:22;;;;;;;13.45;9.68;;;11.40;99.90;;;;;;5015668;28;20065;-63
2022/10/01 01:02:48;;;;;;;14.70;10.80;;;11.20;99.90;;;;;;5015486;28;20468;-63
2022/10/01 01:05:13;;;;;;;10.45;9.23;;;11.20;99.90;;;;;;5016786;28;20388;-63
2022/10/01 01:07:44;;;;;;;12.70;9.18;;;11.40;99.90;;;;;;5012154;28;20099;-64
2022/10/01 01:10:12;;;;;;;11.02;9.63;;;11.20;99.90;;;;;;5013663;28;20042;-63
2022/10/01 01:13:05;;;;;;;16.45;10.48;;;11.50;99.90;;;;;;5018901;28;20373;-64
2022/10/01 01:15:40;;;;;;;13.05;10.20;;;11.30;99.90;;;;;;5015587;28;20061;-63
2022/10/01 01:18:20;;;;;;;12.43;10.82;;;11.40;99.90;;;;;;5013446;28;20038;-64
2022/10/01 01:21:19;;;;;;;14.00;9.60;;;11.30;99.90;;;;;;5015387;28;20053;-64
2022/10/01 01:24:13;;;;;;;11.18;9.30;;;11.20;99.90;;;;;;5031505;28;20124;-62
2022/10/01 01:27:15;;;;;;;12.40;9.23;;;11.20;99.90;;;;;;5023361;28;20042;-64
2022/10/01 01:29:51;;;;;;;13.10;10.35;;;11.30;99.90;;;;;;5019927;28;20525;-63
2022/10/01 01:32:27;;;;;;;12.75;10.38;;;11.30;99.90;;;;;;5031105;28;20127;-63
2022/10/01 01:34:53;;;;;;;;;;;11.20;99.90;;;;;;5026186;28;20041;-64
2022/10/01 01:37:22;;;;;;;10.93;9.18;;;11.30;99.90;;;;;;5013002;28;20012;-64
2022/10/01 01:39:51;;;;;;;11.05;9.43;;;11.30;99.90;;;;;;5014062;28;20046;-64
2022/10/01 01:42:25;;;;;;;13.18;10.02;;;11.30;99.90;;;;;;5032919;28;20108;-64
2022/10/01 01:44:57;;;;;;;13.35;9.88;;;11.30;99.90;;;;;;5027445;28;20079;-64
2022/10/01 01:47:29;;;;;;;13.82;9.75;;;11.00;99.90;;;;;;5031558;28;20108;-64
2022/10/01 01:49:56;;;;;;;11.13;8.90;;;11.30;99.90;;;;;;5031637;28;20049;-64
2022/10/01 01:52:22;;;;;;;12.23;9.23;;;11.20;99.90;;;;;;5031380;28;20045;-64
2022/10/01 01:54:49;;;;;;;12.50;8.98;;;11.20;99.90;;;;;;5031357;28;20388;-64
2022/10/01 01:57:19;;;;;;;10.63;8.95;;;11.20;99.90;;;;;;5012925;28;20400;-64
2022/10/01 01:59:45;;;;;;;11.95;8.30;;;11.30;99.90;;;;;;5013079;28;20052;-64
2022/10/01 02:02:24;;;;;;;11.68;8.60;;;;;;;;;;5012922;28;20396;-64
2022/10/01 02:04:59;;;;;;;11.00;8.52;;;11.30;99.90;;;;;;5011815;28;20041;-62
2022/10/01 02:07:24;;;;;;;;;;;11.30;99.90;;;;;;5011914;28;20042;-62
2022/10/01 02:10:02;;;;;;;8.85;7.50;;;11.30;99.90;;;;;;5011827;28;19987;-60
2022/10/01 02:12:52;;;;;;;11.60;8.48;;;11.30;99.90;;;;;;5019350;28;20037;-59
2022/10/01 02:15:19;;;;;;;8.43;7.22;;;11.30;99.90;;;;;;5032332;28;20050;-58
2022/10/01 02:18:29;;;;;;;10.20;8.52;;;11.30;99.90;;;;;;5031343;28;20049;-61
2022/10/01 02:21:17;;;;;;;7.38;6.63;;;11.40;99.90;;;;;;5036456;28;20037;-60
2022/10/01 02:24:01;;;;;;;9.82;7.82;;;11.40;99.90;;;;;;5036188;28;20045;-61
2022/10/01 02:26:29;;;;;;;9.80;8.02;;;11.30;99.90;;;;;;5036216;28;20037;-60
2022/10/01 02:29:00;;;;;;;9.80;7.68;;;11.30;99.90;;;;;;5035894;28;20083;-61
2022/10/01 02:31:27;;;;;;;9.13;8.02;;;11.30;99.90;;;;;;5036525;28;20478;-61
2022/10/01 02:33:54;;;;;;;9.45;7.35;;;11.10;99.90;;;;;;5036041;28;20045;-61
2022/10/01 02:36:22;;;;;;;11.82;6.82;;;11.30;99.90;;;;;;5034843;28;20049;-61
2022/10/01 02:38:49;;;;;;;8.57;6.72;;;11.40;99.90;;;;;;5035920;28;20041;-61
2022/10/01 02:41:19;;;;;;;8.60;7.13;;;11.40;99.90;;;;;;5034791;28;20044;-60
2022/10/01 02:43:54;;;;;;;9.00;7.53;;;11.30;99.90;;;;;;5034095;28;20377;-62
2022/10/01 02:46:30;;;;;;;8.27;6.50;;;11.50;99.90;;;;;;5022756;28;20046;-62
2022/10/01 02:48:56;;;;;;;8.13;6.30;;;11.40;99.90;;;;;;5039053;28;20484;-62
2022/10/01 02:51:42;;;;;;;7.43;6.28;;;11.50;99.90;;;;;;5035694;28;20460;-62
2022/10/01 02:54:16;;;;;;;6.13;5.22;;;11.50;99.90;;;;;;5035673;28;20037;-62
2022/10/01 02:59:26;;;;;;;6.72;5.82;;;;;;;;;;5035600;28;20124;-63
2022/10/01 03:01:52;;;;;;;6.63;5.22;;;11.60;99.90;;;;;;5034563;28;20080;-62
2022/10/01 03:04:18;;;;;;;6.95;5.28;;;11.60;99.90;;;;;;5035638;28;20042;-61
2022/10/01 03:06:44;;;;;;;5.95;4.88;;;11.60;99.90;;;;;;5034297;28;20042;-62
2022/10/01 03:09:10;;;;;;;7.25;4.90;;;11.50;99.90;;;;;;5035641;28;20124;-62
2022/10/01 03:11:36;;;;;;;5.18;4.50;;;11.60;99.90;;;;;;5035582;28;20065;-61
2022/10/01 03:14:02;;;;;;;6.63;4.10;;;11.50;99.90;;;;;;5035372;28;20042;-62
2022/10/01 03:16:28;;;;;;;5.75;4.07;;;11.60;99.90;;;;;;5035278;28;20068;-61
2022/10/01 03:18:54;;;;;;;4.28;3.78;;;11.50;99.90;;;;;;5035194;28;20068;-62
2022/10/01 03:21:19;;;;;;;6.07;4.13;;;11.80;99.90;;;;;;5033998;28;20047;-61
2022/10/01 03:23:45;;;;;;;4.82;3.67;;;11.60;99.90;;;;;;5034018;28;20442;-62
2022/10/01 03:26:10;;;;;;;4.68;3.20;;;11.60;99.90;;;;;;5034236;28;20484;-62
2022/10/01 03:28:36;;;;;;;4.88;3.47;;;11.40;99.90;;;;;;5035108;28;20112;-61
2022/10/01 03:31:09;;;;;;;4.07;3.67;;;11.60;99.90;;;;;;5016048;28;20045;-62
2022/10/01 03:33:35;;;;;;;4.93;3.03;;;11.60;99.90;;;;;;5035193;28;20049;-62
2022/10/01 03:36:02;;;;;;;3.85;3.08;;;11.70;99.90;;;;;;5035089;28;20121;-62
2022/10/01 03:38:28;;;;;;;3.47;3.17;;;11.60;99.90;;;;;;5034921;28;20073;-62
2022/10/01 03:40:54;;;;;;;3.63;3.28;;;11.80;99.90;;;;;;5034941;28;20453;-62
2022/10/01 03:43:19;;;;;;;4.05;3.42;;;11.80;99.90;;;;;;5034855;28;20077;-62
2022/10/01 03:45:45;;;;;;;4.63;4.10;;;11.60;99.90;;;;;;5032412;28;20504;-62
2022/10/01 03:48:11;;;;;;;4.05;3.47;;;11.70;99.90;;;;;;5034707;28;20033;-61
2022/10/01 03:50:36;;;;;;;4.03;3.40;;;11.60;99.90;;;;;;5034801;28;20041;-62
2022/10/01 03:53:02;;;;;;;4.10;3.03;;;11.70;99.90;;;;;;5034555;28;20052;-62
2022/10/01 03:55:27;;;;;;;5.25;3.35;;;11.70;99.90;;;;;;5034450;28;20041;-62
2022/10/01 03:57:53;;;;;;;4.93;3.40;;;11.80;99.90;;;;;;5034654;28;20037;-61
2022/10/01 04:00:19;;;;;;;4.28;3.88;;;11.80;99.90;;;;;;5034259;28;20129;-61
2022/10/01 04:02:44;;;;;;;4.03;3.42;;;11.80;99.90;;;;;;5034227;28;20040;-60
2022/10/01 04:05:11;;;;;;;13.25;4.18;;;11.80;99.90;;;;;;5034349;28;20101;-61
2022/10/01 04:07:36;;;;;;;4.25;3.58;;;11.70;99.90;;;;;;5033056;28;20084;-60
2022/10/01 04:10:02;;;;;;;4.18;3.38;;;11.80;99.90;;;;;;5034426;28;20073;-60
2022/10/01 04:12:28;;;;;;;3.63;3.33;;;;;;;;;;5032687;28;20049;-62
2022/10/01 04:14:54;;;;;;;4.55;3.10;;;11.80;99.90;;;;;;5033955;28;20055;-61
2022/10/01 04:17:19;;;;;;;4.03;3.13;;;11.80;99.90;;;;;;5034390;28;20487;-60
2022/10/01 04:19:45;;;;;;;4.53;2.90;;;11.80;99.90;;;;;;5033847;28;20046;-61
2022/10/01 04:22:10;;;;;;;4.40;3.30;;;11.70;99.90;;;;;;5034286;28;20112;-59
2022/10/01 04:24:36;;;;;;;3.90;3.40;;;11.70;99.90;;;;;;5034308;28;20033;-60
2022/10/01 04:27:01;;;;;;;3.78;3.08;;;11.90;99.90;;;;;;5033953;28;20546;-60
2022/10/01 04:29:27;;;;;;;3.15;2.85;;;;;;;;;;5033798;28;20068;-61
2022/10/01 04:31:53;;;;;;;4.32;2.80;;;12.10;99.90;;;;;;5032474;28;20049;-61
2022/10/01 04:34:50;;;;;;;4.00;3.15;;;11.90;99.90;;;;;;5033997;28;20034;-61
2022/10/01 04:37:04;;;;;;;;;;;11.80;99.90;;;;;;5034036;28;20091;-60
2022/10/01 04:39:30;;;;;;;3.63;3.08;;;11.90;99.90;;;;;;5033765;28;19964;-60
2022/10/01 04:41:55;;;;;;;3.67;3.22;;;11.80;99.90;;;;;;5032962;28;20038;-61
2022/10/01 04:44:21;;;;;;;3.35;3.03;;;11.80;99.90;;;;;;5031973;28;20043;-61
2022/10/01 04:46:46;;;;;;;5.30;3.50;;;11.70;99.90;;;;;;5033732;28;20036;-61
2022/10/01 04:49:12;;;;;;;3.90;3.20;;;11.80;99.90;;;;;;5032204;28;20044;-61
2022/10/01 04:51:37;;;;;;;3.83;3.53;;;11.90;99.90;;;;;;5033570;28;20029;-61
2022/10/01 04:54:03;;;;;;;4.30;3.90;;;12.00;99.90;;;;;;5033631;28;20541;-61
2022/10/01 04:56:29;;;;;;;4.47;4.07;;;12.00;99.90;;;;;;5033001;28;20504;-60
2022/10/01 04:58:54;;;;;;;6.38;4.57;;;11.90;99.90;;;;;;5032122;28;20098;-61
2022/10/01 05:01:20;;;;;;;4.90;4.35;;;;;;;;;;5033637;28;20041;-60
2022/10/01 05:03:46;;;;;;;5.75;5.20;;;11.90;99.90;;;;;;5032274;28;20072;-60
2022/10/01 05:06:12;;;;;;;7.75;5.20;;;12.10;99.90;;;;;;5033226;28;20134;-61
2022/10/01 05:08:37;;;;;;;5.63;5.03;;;12.00;99.90;;;;;;5033309;28;20121;-61
2022/10/01 05:11:03;;;;;;;8.40;5.25;;;12.10;99.90;;;;;;5031837;28;20463;-61
2022/10/01 05:13:30;;;;;;;6.20;5.45;;;12.20;99.90;;;;;;5033118;28;20045;-60
2022/10/01 05:15:56;;;;;;;8.52;5.72;;;12.10;99.90;;;;;;5032845;28;20061;-62
2022/10/01 05:18:22;;;;;;;7.28;5.53;;;12.00;99.90;;;;;;5033094;28;20499;-60
2022/10/01 05:20:47;;;;;;;6.72;6.07;;;12.20;99.90;;;;;;5032894;28;20076;-61
2022/10/01 05:23:13;;;;;;;7.38;6.57;;;12.30;99.90;;;;;;5032016;28;20041;-61
2022/10/01 05:25:39;;;;;;;7.85;6.35;;;12.20;99.90;;;;;;5031493;28;20053;-61
2022/10/01 05:28:04;;;;;;;6.88;5.63;;;12.30;99.90;;;;;;5031921;28;20135;-61
2022/10/01 05:30:30;;;;;;;7.97;6.30;;;12.30;99.90;;;;;;5032970;28;20507;-61
2022/10/01 05:32:59;;;;;;;8.07;6.60;;;12.20;99.90;;;;;;5031639;28;20057;-61
2022/10/01 05:35:25;;;;;;;7.68;6.57;;;12.20;99.90;;;;;;5033044;28;20044;-61
2022/10/01 05:37:55;;;;;;;8.40;7.55;;;12.20;99.90;;;;;;5032910;28;20038;-61
2022/10/01 05:40:20;;;;;;;10.07;7.03;;;12.20;99.90;;;;;;5032906;28;20041;-61
2022/10/01 05:42:46;;;;;;;7.97;7.13;;;12.30;99.90;;;;;;5032906;28;20135;-61
2022/10/01 05:45:12;;;;;;;8.70;7.30;;;12.30;99.90;;;;;;5032341;28;20034;-61
2022/10/01 05:47:41;;;;;;;9.45;7.38;;;12.40;99.90;;;;;;5032711;28;20100;-61
2022/10/01 05:50:07;;;;;;;8.70;7.88;;;12.40;99.90;;;;;;5031802;28;20052;-59
2022/10/01 05:52:33;;;;;;;10.48;7.28;;;12.40;99.90;;;;;;5032784;28;20056;-60
2022/10/01 05:54:58;;;;;;;10.40;7.97;;;12.30;99.90;;;;;;5034822;28;20053;-60
2022/10/01 05:57:24;;;;;;;10.07;8.02;;;12.30;99.90;;;;;;5036942;28;20071;-60
2022/10/01 05:59:49;;;;;;;11.85;8.20;;;12.20;99.90;;;;;;5036632;28;20089;-61
2022/10/01 06:02:15;;;;;;;9.25;7.85;;;;;;;;;;5035602;28;20045;-64
2022/10/01 06:04:41;;;;;;;9.68;8.32;;;12.10;99.90;;;;;;5035615;28;20484;-61
2022/10/01 06:07:06;;;;;;;8.82;7.93;;;12.30;99.90;;;;;;5036695;28;20037;-61
2022/10/01 06:09:32;;;;;;;8.90;7.72;;;12.30;99.90;;;;;;5035532;28;20083;-61
2022/10/01 06:11:57;;;;;;;11.27;7.75;;;12.40;99.90;;;;;;5036371;28;20045;-61
2022/10/01 06:14:23;;;;;;;9.10;8.05;;;12.50;99.90;;;;;;5036320;28;20054;-61
2022/10/01 06:16:52;;;;;;;9.95;8.10;;;12.60;99.90;;;;;;5036788;28;20051;-61
2022/10/01 06:19:18;;;;;;;10.00;8.48;;;;;;;;;;5034987;28;20045;-61
2022/10/01 06:21:44;;;;;;;8.43;7.50;;;12.50;99.90;;;;;;5036323;28;20412;-61
2022/10/01 06:24:09;;;;;;;10.85;8.18;;;12.60;99.90;;;;;;5034975;28;20086;-59
2022/10/01 06:26:35;;;;;;;10.75;7.70;;;12.50;99.90;;;;;;5036103;28;20120;-61
2022/10/01 06:29:01;;;;;;;19.00;8.75;;;12.50;99.90;;;;;;5034907;28;20040;-60
2022/10/01 06:31:28;;;;;;;11.57;8.68;;;12.60;99.90;;;;;;5036465;28;20045;-61
2022/10/01 06:33:53;;;;;;;8.73;7.75;;;12.70;99.90;;;;;;5024177;28;20045;-61
2022/10/01 06:36:19;;;;;;;13.32;7.47;;;12.70;99.90;;;;;;5033352;28;20044;-62
2022/10/01 06:38:48;;;;;;;13.18;8.23;;;12.80;99.90;;;;;;5033100;28;20105;-62
2022/10/01 06:41:13;;;;;;;11.13;7.35;;;12.80;99.90;;;;;;5035838;28;20037;-62
2022/10/01 06:43:39;;;;;;;11.88;7.78;;;12.80;99.90;;;;;;5017935;28;20446;-61
2022/10/01 06:46:04;;;;;;;9.38;7.82;;;12.80;99.90;;;;;;5035089;28;20105;-61
2022/10/01 06:48:31;;;;;;;10.18;7.72;;;12.90;99.90;;;;;;5035193;28;20068;-61
2022/10/01 06:50:57;;;;;;;8.70;7.07;;;12.90;99.90;;;;;;5035153;28;20041;-61
2022/10/01 06:53:23;;;;;;;10.68;7.00;;;13.00;99.90;;;;;;5035553;28;20040;-61
2022/10/01 06:55:49;;;;;;;9.88;7.90;;;13.20;99.90;;;;;;5035540;28;20119;-62
2022/10/01 06:58:16;;;;;;;16.95;8.52;;;12.90;99.90;;;;;;5034167;28;20037;-62
2022/10/01 07:00:42;;;;;;;12.48;7.40;;;12.80;99.90;;;;;;5033879;28;20046;-62
2022/10/01 07:03:12;;;;;;;11.93;7.93;;;12.90;99.90;;;;;;5034897;28;20430;-60
2022/10/01 07:05:39;;;;;;;17.05;9.82;;;13.00;99.90;;;;;;5033334;28;20068;-60
2022/10/01 07:08:05;;;;;;;12.15;7.68;;;13.00;99.90;;;;;;5032510;28;20476;-59
2022/10/01 07:10:33;;;;;;;11.70;8.23;;;;;;;;;;5034630;28;20068;-62
2022/10/01 07:13:10;;;;;;;10.10;5.70;;;12.90;99.90;;;;;;5034955;28;20033;-61
2022/10/01 07:15:36;;;;;;;12.68;5.85;;;13.00;99.90;;;;;;5034699;28;20092;-61
2022/10/01 07:18:02;;;;;;;12.45;5.72;;;13.00;99.90;;;;;;5033394;28;20052;-61
2022/10/01 07:20:29;;;;;;;11.50;6.07;;;13.10;99.90;;;;;;5034788;28;20045;-61
2022/10/01 07:22:59;;;;;;;7.93;4.35;;;13.20;99.90;;;;;;5033834;28;20045;-62
2022/10/01 07:25:25;;;;;;;17.65;5.80;;;13.10;99.90;;;;;;5035043;28;20034;-63
2022/10/01 07:27:59;;;;;;;8.85;5.43;;;13.20;99.90;;;;;;5033832;28;20116;-62
2022/10/01 07:30:26;;;;;;;7.63;5.17;;;13.20;99.90;;;;;;5024933;28;20080;-62
2022/10/01 07:32:53;;;;;;;8.02;4.68;;;13.10;99.90;;;;;;5019475;28;20284;-62
2022/10/01 07:35:19;;;;;;;9.90;4.70;;;13.00;99.90;;;;;;5016337;28;20093;-62
2022/10/01 07:37:47;;;;;;;10.00;5.15;;;13.10;99.90;;;;;;5027739;28;20087;-62
2022/10/01 07:40:15;;;;;;;11.60;4.88;;;;;;;;;;5033752;28;20076;-63
2022/10/01 07:42:41;;;;;;;12.75;5.70;;;13.10;99.90;;;;;;5033380;28;20128;-64
2022/10/01 07:45:07;;;;;;;9.30;4.97;;;13.30;99.90;;;;;;5033222;28;20112;-63
2022/10/01 07:47:33;;;;;;;13.27;5.43;;;13.80;99.90;;;;;;5033504;28;20037;-63
2022/10/01 07:49:58;;;;;;;7.45;4.88;;;13.80;99.90;;;;;;5029826;28;20120;-63
2022/10/01 07:52:24;;;;;;;8.63;4.22;;;14.10;99.90;;;;;;5020683;28;20167;-62
2022/10/01 07:54:49;;;;;;;8.80;4.75;;;14.20;99.90;;;;;;5023110;28;20045;-63
2022/10/01 07:57:15;;;;;;;6.63;3.83;;;14.40;99.90;;;;;;5034528;28;20042;-63
2022/10/01 07:59:41;;;;;;;12.35;4.43;;;14.60;99.90;;;;;;5033139;28;20057;-63
2022/10/01 08:02:14;;;;;;;11.63;3.97;;;14.80;99.90;;;;;;5033314;28;20092;-63
2022/10/01 08:07:24;;;;;;;14.68;4.03;;;15.10;99.90;;;;;;5032908;28;20045;-64
2022/10/01 08:09:49;;;;;;;13.65;3.65;;;15.40;99.90;;;;;;5033102;28;20041;-63
2022/10/01 08:12:16;;;;;;;7.35;2.58;;;15.50;99.90;;;;;;5032781;28;20045;-63
2022/10/01 08:14:42;;;;;;;7.40;2.72;;;15.60;99.90;;;;;;5032662;28;20061;-63
2022/10/01 08:17:07;;;;;;;11.05;3.70;;;15.90;99.90;;;;;;5033083;28;20175;-63
2022/10/01 08:19:35;;;;;;;6.30;2.70;;;16.10;99.90;;;;;;5032110;28;20069;-65
2022/10/01 08:22:00;;;;;;;11.75;2.50;;;16.10;99.90;;;;;;5033250;28;20148;-65
2022/10/01 08:24:26;;;;;;;9.25;2.33;;;16.20;99.90;;;;;;5033889;28;20117;-63
2022/10/01 08:26:54;;;;;;;8.07;2.67;;;16.40;99.90;;;;;;5033764;28;20550;-68
2022/10/01 08:29:20;;;;;;;10.95;2.67;;;16.40;99.90;;;;;;5032252;28;20052;-64
2022/10/01 08:31:46;;;;;;;11.57;2.75;;;;;;;;;;5033762;28;20439;-63
2022/10/01 08:34:11;;;;;;;9.25;2.05;;;16.30;99.90;;;;;;5033668;28;20091;-63
2022/10/01 08:36:37;;;;;;;11.77;2.20;;;16.30;99.90;;;;;;5033996;28;20117;-63
2022/10/01 08:39:03;;;;;;;13.13;3.10;;;16.10;99.90;;;;;;5015820;28;20038;-63
2022/10/01 08:41:45;;;;;;;10.93;2.47;;;15.80;99.90;;;;;;5033837;28;20026;-63
2022/10/01 08:44:27;;;;;;;19.40;3.00;;;15.90;99.90;;;;;;5033353;28;20042;-64
2022/10/01 08:46:58;;;;;;;12.10;2.42;;;16.00;99.90;;;;;;5032481;28;20041;-67
2022/10/01 08:49:39;;;;;;;15.20;4.38;;;16.10;99.90;;;;;;5031467;28;20060;-66
2022/10/01 08:52:22;;;;;;;22.20;8.35;;;16.10;99.90;;;;;;5033571;28;20043;-66
2022/10/01 08:54:58;;;;;;;14.52;2.88;;;16.30;99.90;;;;;;5021048;28;20046;-66
2022/10/01 08:57:31;;;;;;;9.70;1.75;;;16.10;99.90;;;;;;5032183;28;20056;-67
2022/10/01 09:00:00;;;;;;;8.27;1.48;;;17.20;99.90;;;;;;5021583;28;20048;-66
2022/10/01 09:02:32;;;;;;;9.18;2.15;;;17.30;99.90;;;;;;5033287;28;20083;-66
2022/10/01 09:05:19;;;;;;;6.30;2.30;;;17.60;99.90;;;;;;5021041;28;20049;-67
2022/10/01 09:07:51;;;;;;;3.85;1.30;;;18.60;99.90;;;;;;5032529;28;20065;-67
2022/10/01 09:10:44;;;;;;;10.75;3.67;;;18.70;99.90;;;;;;5032224;28;20049;-66
2022/10/01 09:13:38;;;;;;;8.50;1.35;;;18.20;99.90;;;;;;5032957;28;20037;-64
2022/10/01 09:16:13;;;;;;;7.72;1.55;;;17.50;99.90;;;;;;5031786;28;20124;-64
2022/10/01 09:19:09;;;;;;;10.63;1.30;;;17.00;99.90;;;;;;5021401;28;20063;-65
2022/10/01 09:21:53;;;;;;;10.38;2.72;;;16.70;99.90;;;;;;5031683;28;20088;-64
2022/10/01 09:24:42;;;;;;;7.85;1.30;;;16.20;99.90;;;;;;5005785;28;20045;-64
2022/10/01 09:27:12;;;;;;;6.60;1.55;;;16.80;99.90;;;;;;5031665;28;20565;-64
2022/10/01 09:29:48;;;;;;;3.90;1.00;;;16.90;99.90;;;;;;5033260;28;20069;-65
2022/10/01 09:32:21;;;;;;;5.53;0.75;;;17.50;99.90;;;;;;5032703;28;20564;-66
2022/10/01 09:34:47;;;;;;;5.80;0.80;;;17.30;99.90;;;;;;5032054;28;20124;-64
2022/10/01 09:38:06;;;;;;;6.03;0.95;;;17.00;99.90;;;;;;5033093;28;20121;-65
2022/10/01 09:40:37;;;;;;;7.47;1.25;;;16.00;99.90;;;;;;4955620;28;20113;-65
2022/10/01 09:43:06;;;;;;;3.90;1.05;;;16.00;99.90;;;;;;4955698;28;20548;-65
2022/10/01 09:45:33;;;;;;;3.20;0.68;;;15.70;99.90;;;;;;5003517;28;20053;-64
2022/10/01 09:48:23;;;;;;;5.35;0.80;;;15.50;99.90;;;;;;5032864;28;20064;-64
2022/10/01 09:50:55;;;;;;;4.25;1.30;;;15.30;99.90;;;;;;5009526;28;20577;-64
2022/10/01 09:53:33;;;;;;;3.67;0.80;;;15.30;99.90;;;;;;5031391;28;20030;-65
2022/10/01 09:56:07;;;;;;;4.47;1.00;;;15.50;99.90;;;;;;5032657;28;20525;-65
2022/10/01 09:58:36;;;;;;;7.60;1.35;;;14.90;99.90;;;;;;5031339;28;20037;-65
2022/10/01 10:01:02;;;;;;;4.05;1.20;;;14.80;99.90;;;;;;5031364;28;20555;-65
2022/10/01 10:03:30;;;;;;;7.15;1.20;;;16.90;99.90;;;;;;5032032;28;20038;-65
2022/10/01 10:05:58;;;;;;;8.00;1.38;;;16.80;99.90;;;;;;5030979;28;20041;-65
2022/10/01 10:08:32;;;;;;;6.25;1.02;;;16.80;99.90;;;;;;5032286;28;20061;-65
2022/10/01 10:11:04;;;;;;;4.22;1.10;;;16.90;99.90;;;;;;5032203;28;20042;-66
2022/10/01 10:13:33;;;;;;;5.88;1.63;;;16.70;99.90;;;;;;5031100;28;20510;-65
2022/10/01 10:16:06;;;;;;;10.35;1.65;;;16.40;99.90;;;;;;5032330;28;20137;-67
2022/10/01 10:18:37;;;;;;;13.30;1.73;;;16.20;99.90;;;;;;5031120;28;20491;-67
2022/10/01 10:21:27;;;;;;;7.55;1.60;;;15.60;99.90;;;;;;5032671;28;20096;-66
2022/10/01 10:23:57;;;;;;;8.35;1.70;;;15.40;99.90;;;;;;5018866;28;20368;-66
2022/10/01 10:26:50;;;;;;;9.18;1.92;;;15.30;99.90;;;;;;5031149;28;20044;-65
2022/10/01 10:29:29;;;;;;;10.85;1.83;;;15.30;99.90;;;;;;5031900;28;20487;-65
2022/10/01 10:31:56;;;;;;;8.05;1.65;;;14.90;99.90;;;;;;5032047;28;20037;-65
2022/10/01 10:34:37;;;;;;;5.43;1.23;;;14.80;99.90;;;;;;5030571;28;20492;-65
2022/10/01 10:37:10;;;;;;;4.53;0.70;;;14.70;99.90;;;;;;5030830;28;20044;-65
2022/10/01 10:39:39;;;;;;;4.20;0.85;;;14.70;99.90;;;;;;5031972;28;20415;-65
2022/10/01 10:42:06;;;;;;;5.32;0.80;;;14.60;99.90;;;;;;5036110;28;20034;-65
2022/10/01 10:44:38;;;;;;;10.27;2.20;;;14.50;99.90;;;;;;5036012;28;20044;-65
2022/10/01 10:47:12;;;;;;;3.15;0.85;;;14.40;99.90;;;;;;5035996;28;20037;-65
2022/10/01 10:49:54;;;;;;;8.07;1.07;;;14.40;99.90;;;;;;5024334;28;20120;-65
2022/10/01 10:52:23;;;;;;;3.15;1.05;;;14.30;99.90;;;;;;5034644;28;20049;-65
2022/10/01 10:54:52;;;;;;;3.58;1.13;;;14.40;99.90;;;;;;5035971;28;20128;-65
2022/10/01 10:57:27;;;;;;;7.72;1.65;;;14.50;99.90;;;;;;5035771;28;20136;-65
2022/10/01 10:59:55;;;;;;;4.03;1.20;;;14.30;99.90;;;;;;5023025;28;20051;-65
2022/10/01 11:02:24;;;;;;;5.88;1.25;;;14.30;99.90;;;;;;5035478;28;20042;-65
2022/10/01 11:04:51;;;;;;;11.23;2.17;;;14.40;99.90;;;;;;5022903;28;20048;-65
2022/10/01 11:07:22;;;;;;;7.93;1.40;;;14.10;99.90;;;;;;5034289;28;20049;-65
2022/10/01 11:10:26;;;;;;;6.30;1.42;;;14.20;99.90;;;;;;5034503;28;20519;-65
2022/10/01 11:13:11;;;;;;;4.57;1.40;;;14.30;99.90;;;;;;5001075;28;20050;-65
2022/10/01 11:15:59;;;;;;;5.32;1.25;;;14.40;99.90;;;;;;5034072;28;20057;-65
2022/10/01 11:18:36;;;;;;;7.13;1.77;;;14.30;99.90;;;;;;5034913;28;20480;-65
2022/10/01 11:21:36;;;;;;;10.25;1.50;;;14.70;99.90;;;;;;5033899;28;20099;-65
2022/10/01 11:24:21;;;;;;;6.03;1.17;;;14.70;99.90;;;;;;5022616;28;20063;-65
2022/10/01 11:26:51;;;;;;;9.07;2.05;;;14.80;99.90;;;;;;5033969;28;20041;-65
2022/10/01 11:29:46;;;;;;;11.75;1.50;;;14.80;99.90;;;;;;5022740;28;20411;-65
2022/10/01 11:32:16;;;;;;;6.22;1.30;;;;;;;;;;5017506;28;20060;-65
2022/10/01 11:35:03;;;;;;;10.32;1.50;;;14.90;99.90;;;;;;5033893;28;20499;-65
2022/10/01 11:38:01;;;;;;;6.35;1.60;;;15.00;99.90;;;;;;5020134;28;20116;-65
2022/10/01 11:40:40;;;;;;;8.70;1.55;;;15.20;99.90;;;;;;5033197;28;20107;-65
2022/10/01 11:43:30;;;;;;;10.60;1.73;;;15.10;99.90;;;;;;5033751;28;20079;-65
2022/10/01 11:46:05;;;;;;;9.15;1.75;;;15.30;99.90;;;;;;5020713;28;20428;-65
2022/10/01 11:48:34;;;;;;;;;;;15.10;99.90;;;;;;5033997;28;20041;-65
2022/10/01 11:51:24;;;;;;;12.73;3.25;;;15.50;99.90;;;;;;5032273;28;19967;-65
2022/10/01 11:53:55;;;;;;;14.73;2.17;;;15.50;99.90;;;;;;5033725;28;20120;-65
2022/10/01 11:59:21;;;;;;;10.00;2.95;;;15.50;99.90;;;;;;5034374;28;20120;-65
2022/10/01 12:02:10;;;;;;;8.57;1.63;;;15.50;99.90;;;;;;5034848;28;20456;-65
2022/10/01 12:04:48;;;;;;;22.17;2.58;;;15.30;99.90;;;;;;5033228;28;20127;-65
2022/10/01 12:07:49;;;;;;;11.18;2.65;;;15.30;99.90;;;;;;5034626;28;20084;-65
2022/10/01 12:10:28;;;;;;;11.18;2.30;;;15.40;99.90;;;;;;5031436;28;20033;-65
2022/10/01 12:12:56;;;;;;;13.82;1.92;;;15.40;99.90;;;;;;5034252;28;20554;-65
2022/10/01 12:15:31;;;;;;;12.73;2.22;;;15.30;99.90;;;;;;5033006;28;20057;-65
2022/10/01 12:18:07;;;;;;;11.35;1.92;;;15.50;99.90;;;;;;5033201;28;20064;-66
2022/10/01 12:20:51;;;;;;;6.07;1.48;;;15.70;99.90;;;;;;5032946;28;20403;-65
2022/10/01 12:23:30;;;;;;;11.88;1.70;;;15.40;99.90;;;;;;5034005;28;20086;-65
2022/10/01 12:26:30;;;;;;;11.63;1.55;;;15.40;99.90;;;;;;5033234;28;20045;-65
2022/10/01 12:29:21;;;;;;;10.30;1.88;;;15.40;99.90;;;;;;5033947;28;20506;-65
2022/10/01 12:32:05;;;;;;;11.57;2.85;;;15.30;99.90;;;;;;5033076;28;20056;-65
2022/10/01 12:35:04;;;;;;;8.82;1.90;;;15.50;99.90;;;;;;5033948;28;20042;-65
2022/10/01 12:37:54;;;;;;;16.15;3.47;;;15.30;99.90;;;;;;4995555;28;20053;-65
2022/10/01 12:40:46;;;;;;;13.48;2.53;;;15.30;99.90;;;;;;5032471;28;20052;-65
2022/10/01 12:43:12;;;;;;;14.93;2.80;;;15.40;99.90;;;;;;5032588;28;20064;-65
2022/10/01 12:45:50;;;;;;;11.45;2.03;;;15.30;99.90;;;;;;5033627;28;20411;-65
2022/10/01 12:48:48;;;;;;;10.32;2.22;;;15.40;99.90;;;;;;5032164;28;20041;-65
2022/10/01 12:51:36;;;;;;;10.20;1.92;;;15.50;99.90;;;;;;5020962;28;20096;-65
2022/10/01 12:54:23;;;;;;;18.08;3.70;;;15.50;99.90;;;;;;5032207;28;20486;-65
2022/10/01 12:57:18;;;;;;;15.75;5.03;;;15.70;99.90;;;;;;5032297;28;20442;-65
2022/10/01 12:59:59;;;;;;;12.57;2.30;;;15.70;99.90;;;;;;5012458;28;20061;-65
2022/10/01 13:02:52;;;;;;;8.75;1.80;;;15.90;99.90;;;;;;5028706;28;20041;-65
2022/10/01 13:05:35;;;;;;;8.43;1.58;;;15.80;99.90;;;;;;5032410;28;20081;-65
2022/10/01 13:08:11;;;;;;;15.40;2.30;;;15.80;99.90;;;;;;5031631;28;20044;-66
2022/10/01 13:11:04;;;;;;;19.40;3.55;;;15.70;99.90;;;;;;5033444;28;20045;-65
2022/10/01 13:13:34;;;;;;;11.30;2.60;;;15.70;99.90;;;;;;5022374;28;20041;-65
2022/10/01 13:16:23;;;;;;;13.63;1.98;;;15.70;99.90;;;;;;5031844;28;20072;-65
2022/10/01 13:19:20;;;;;;;14.70;2.80;;;15.60;99.90;;;;;;5033463;28;20116;-65
2022/10/01 13:21:54;;;;;;;15.77;2.38;;;15.60;99.90;;;;;;5030032;28;20546;-65